Time;durP1;ratioP1;P1;durP2;ratioP2;P2;SDS_P1;SDS_P2;PMS_P1;PMS_P2;Temp;Humidity;BMP_temperature;BMP_pressure;BME280_temperature;BME280_humidity;BME280_pressure;Samples;Min_cycle;Max_cycle;Signal;HPM_P1;HPM_P2
2022/12/15 00:40:30;;;;;;;16.60;6.63;;;-2.80;99.90;;;;;;5021937;28;20171;-72
2022/12/15 00:42:56;;;;;;;29.48;7.38;;;-2.80;99.90;;;;;;5001211;28;20121;-71
2022/12/15 00:46:53;;;;;;;15.45;6.90;;;-2.80;99.90;;;;;;5020460;28;20046;-70
2022/12/15 00:48:07;;;;;;;16.98;6.38;;;-2.80;99.90;;;;;;5012437;28;20436;-71
2022/12/15 01:21:01;;;;;;;19.70;7.53;;;-2.80;99.90;;;;;;4917484;29;20072;-71
2022/12/15 01:23:27;;;;;;;17.52;6.47;;;-2.90;99.90;;;;;;4913042;29;20417;-70
2022/12/15 01:25:53;;;;;;;20.45;7.20;;;-2.90;99.90;;;;;;4918087;29;20040;-70
2022/12/15 01:28:20;;;;;;;16.48;6.05;;;-2.90;99.90;;;;;;4986168;28;20041;-70
2022/12/15 01:30:46;;;;;;;16.33;7.38;;;-2.90;99.90;;;;;;5017446;28;20069;-70
2022/12/15 01:33:12;;;;;;;15.73;6.18;;;-2.80;99.90;;;;;;5018034;28;20854;-70
2022/12/15 01:35:38;;;;;;;15.13;6.43;;;-2.80;99.90;;;;;;5020067;28;20040;-70
2022/12/15 01:38:04;;;;;;;16.58;6.78;;;-2.90;99.90;;;;;;5016589;28;20410;-70
2022/12/15 01:40:45;;;;;;;15.00;5.93;;;-2.90;99.90;;;;;;5020724;28;20405;-69
2022/12/15 01:43:25;;;;;;;15.75;5.93;;;-2.90;99.90;;;;;;5007140;28;20161;-70
2022/12/15 01:46:03;;;;;;;25.23;7.20;;;-2.90;99.90;;;;;;5016107;28;20037;-71
2022/12/15 01:48:41;;;;;;;16.95;6.05;;;-3.00;99.90;;;;;;5012806;28;20034;-70
2022/12/15 01:51:40;;;;;;;16.02;6.25;;;-3.00;99.90;;;;;;5000297;28;20057;-70
2022/12/15 01:54:22;;;;;;;15.77;6.40;;;-3.00;99.90;;;;;;5014153;28;20061;-70
2022/12/15 01:56:51;;;;;;;15.75;6.25;;;-3.00;99.90;;;;;;5017695;28;20063;-71
2022/12/15 01:59:25;;;;;;;18.77;6.38;;;-3.00;99.90;;;;;;5014827;28;20045;-71
2022/12/15 02:01:51;;;;;;;14.70;6.03;;;-3.00;99.90;;;;;;5015227;28;20061;-69
2022/12/15 02:04:20;;;;;;;14.45;6.03;;;-3.00;99.90;;;;;;4994762;28;20455;-72
2022/12/15 02:06:45;;;;;;;17.15;6.05;;;-3.00;99.90;;;;;;5019832;28;20030;-70
2022/12/15 02:09:11;;;;;;;19.00;6.55;;;-3.00;99.90;;;;;;5013082;28;20128;-69
2022/12/15 02:11:52;;;;;;;19.20;6.68;;;-3.00;99.90;;;;;;5019126;28;20060;-70
2022/12/15 02:14:36;;;;;;;17.13;6.70;;;-3.10;99.90;;;;;;5018092;28;20128;-71
2022/12/15 02:17:31;;;;;;;12.98;5.68;;;-3.10;99.90;;;;;;5012871;28;20031;-69
2022/12/15 02:20:31;;;;;;;13.65;5.50;;;-3.10;99.90;;;;;;5018586;28;20044;-70
2022/12/15 02:23:46;;;;;;;15.00;5.70;;;-3.10;99.90;;;;;;5011780;28;20042;-70
2022/12/15 02:26:24;;;;;;;13.02;5.78;;;-3.10;99.90;;;;;;5005097;28;20041;-68
2022/12/15 02:29:13;;;;;;;11.82;5.68;;;-3.10;99.90;;;;;;5016690;28;20042;-70
2022/12/15 02:31:56;;;;;;;14.80;6.18;;;-3.10;99.90;;;;;;5016704;28;20042;-70
2022/12/15 02:34:43;;;;;;;13.57;6.13;;;-3.10;99.90;;;;;;5006623;28;20056;-70
2022/12/15 02:37:28;;;;;;;15.27;7.22;;;-3.20;99.90;;;;;;5015668;28;20069;-70
2022/12/15 02:39:54;;;;;;;11.50;5.55;;;-3.20;99.90;;;;;;5012249;28;20041;-70
2022/12/15 02:42:21;;;;;;;16.70;6.10;;;-3.10;99.90;;;;;;5018289;28;20049;-71
2022/12/15 02:44:49;;;;;;;14.38;6.28;;;-3.10;99.90;;;;;;5015169;28;20082;-70
2022/12/15 02:47:33;;;;;;;17.90;6.55;;;-3.10;99.90;;;;;;4998516;28;20049;-70
2022/12/15 02:50:19;;;;;;;12.88;5.95;;;-3.10;99.90;;;;;;5013570;28;20042;-69
2022/12/15 02:53:14;;;;;;;13.68;5.13;;;-3.10;99.90;;;;;;5017014;28;20067;-68
2022/12/15 02:56:01;;;;;;;13.13;5.30;;;-3.10;99.90;;;;;;5016648;28;20041;-70
2022/12/15 02:58:45;;;;;;;12.07;5.63;;;-3.10;99.90;;;;;;5013174;28;20117;-70
2022/12/15 03:01:18;;;;;;;14.80;6.22;;;-3.10;99.90;;;;;;5014856;28;20034;-70
2022/12/15 03:03:46;;;;;;;17.08;6.55;;;-3.10;99.90;;;;;;5019391;28;20120;-67
2022/12/15 03:06:12;;;;;;;9.48;5.25;;;-3.10;99.90;;;;;;5017173;28;20080;-71
2022/12/15 03:08:37;;;;;;;21.73;5.78;;;-3.10;99.90;;;;;;5013796;28;20413;-68
2022/12/15 03:11:03;;;;;;;15.70;6.43;;;-3.10;99.90;;;;;;5016003;28;20033;-71
2022/12/15 03:13:29;;;;;;;14.20;5.35;;;-3.10;99.90;;;;;;5001095;28;20041;-68
2022/12/15 03:15:54;;;;;;;16.40;6.78;;;-3.20;99.90;;;;;;5015395;28;20120;-70
2022/12/15 03:18:20;;;;;;;16.77;6.82;;;-3.20;99.90;;;;;;5013403;28;20041;-70
2022/12/15 03:20:46;;;;;;;16.42;6.85;;;-3.20;99.90;;;;;;5000052;28;20026;-71
2022/12/15 03:23:11;;;;;;;21.85;6.53;;;-3.20;99.90;;;;;;5016305;28;20179;-69
2022/12/15 03:25:37;;;;;;;18.52;7.28;;;-3.20;99.90;;;;;;5014379;28;20301;-68
2022/12/15 03:28:03;;;;;;;24.17;7.63;;;-3.20;99.90;;;;;;5016306;28;20037;-69
2022/12/15 03:30:28;;;;;;;18.35;6.20;;;-3.20;99.90;;;;;;5018304;28;20036;-71
2022/12/15 03:32:54;;;;;;;19.42;7.07;;;-3.20;99.90;;;;;;5001280;28;20053;-70
2022/12/15 03:35:20;;;;;;;21.90;5.85;;;-3.20;99.90;;;;;;5015362;28;20045;-71
2022/12/15 03:37:45;;;;;;;19.13;6.95;;;-3.20;99.90;;;;;;5019275;28;20044;-70
2022/12/15 03:40:12;;;;;;;20.25;7.03;;;-3.30;99.90;;;;;;5015945;28;20124;-71
2022/12/15 03:42:48;;;;;;;17.42;6.40;;;-3.20;99.90;;;;;;5018412;28;20038;-70
2022/12/15 03:45:23;;;;;;;19.80;6.50;;;-3.30;99.90;;;;;;5017141;28;20033;-71
2022/12/15 03:47:49;;;;;;;18.00;6.72;;;-3.20;99.90;;;;;;5001060;28;20139;-71
2022/12/15 03:50:21;;;;;;;18.15;6.03;;;-3.20;99.90;;;;;;5007553;28;20045;-71
2022/12/15 03:52:55;;;;;;;15.25;5.82;;;-3.20;99.90;;;;;;5004308;28;20099;-71
2022/12/15 03:55:22;;;;;;;11.07;5.50;;;-3.20;99.90;;;;;;5018715;28;20034;-71
2022/12/15 03:57:48;;;;;;;12.15;5.78;;;-3.20;99.90;;;;;;5022035;28;20025;-71
2022/12/15 04:00:15;;;;;;;12.30;4.72;;;-3.10;99.90;;;;;;5021912;28;20128;-71
2022/12/15 04:02:41;;;;;;;10.77;4.50;;;-3.10;99.90;;;;;;5025336;28;20138;-70
2022/12/15 04:05:11;;;;;;;11.00;5.15;;;-3.10;99.90;;;;;;5022833;28;20044;-71
2022/12/15 04:07:36;;;;;;;14.43;6.05;;;-3.10;99.90;;;;;;5023117;28;20554;-72
2022/12/15 04:10:03;;;;;;;15.68;5.80;;;-3.00;99.90;;;;;;5023751;28;20176;-71
2022/12/15 04:12:28;;;;;;;14.27;6.15;;;-3.00;99.90;;;;;;5023371;28;20038;-71
2022/12/15 04:14:54;;;;;;;13.45;5.47;;;-3.00;99.90;;;;;;5025091;28;20398;-71
2022/12/15 04:17:20;;;;;;;14.95;5.57;;;-3.00;99.90;;;;;;5022161;28;20045;-71
2022/12/15 04:22:29;;;;;;;12.05;5.45;;;-3.00;99.90;;;;;;5020721;28;20048;-70
2022/12/15 05:33:27;;;;;;;17.27;6.32;;;-3.00;99.90;;;;;;5018083;28;20037;-70
2022/12/15 05:35:56;;;;;;;14.00;5.07;;;-3.10;99.90;;;;;;4993888;28;20494;-70
2022/12/15 05:38:22;;;;;;;13.50;6.47;;;-3.10;99.90;;;;;;5015014;28;20042;-71
2022/12/15 05:40:47;;;;;;;14.23;4.75;;;-3.10;99.90;;;;;;4997533;28;20049;-70
2022/12/15 05:43:13;;;;;;;13.60;6.15;;;-3.10;99.90;;;;;;5021527;28;20110;-70
2022/12/15 05:45:39;;;;;;;17.60;5.32;;;-3.10;99.90;;;;;;5018748;28;20475;-71
2022/12/15 05:48:05;;;;;;;14.15;5.82;;;-3.10;99.90;;;;;;5020514;28;20037;-67
2022/12/15 05:50:30;;;;;;;11.80;5.68;;;-3.10;99.90;;;;;;5020163;28;20041;-71
2022/12/15 05:52:58;;;;;;;11.32;4.95;;;-3.10;99.90;;;;;;5009468;28;20029;-70
2022/12/15 05:55:23;;;;;;;17.52;6.80;;;-3.10;99.90;;;;;;5014171;28;20041;-70
2022/12/15 05:57:55;;;;;;;11.43;5.32;;;-3.20;99.90;;;;;;5024004;28;20025;-70
2022/12/15 06:00:21;;;;;;;14.63;6.18;;;-3.10;99.90;;;;;;5007141;28;20042;-70
2022/12/15 06:02:46;;;;;;;15.38;6.13;;;-3.10;99.90;;;;;;5018765;28;20042;-70
2022/12/15 06:05:12;;;;;;;11.23;5.35;;;-3.10;99.90;;;;;;5020966;28;20046;-70
2022/12/15 06:07:38;;;;;;;14.85;5.55;;;-3.10;99.90;;;;;;5005373;28;20038;-70
2022/12/15 06:10:04;;;;;;;21.05;6.38;;;-3.10;99.90;;;;;;5017933;28;20367;-71
2022/12/15 06:12:30;;;;;;;18.88;6.38;;;-3.10;99.90;;;;;;5017383;28;20111;-72
2022/12/15 06:14:56;;;;;;;12.70;6.65;;;-3.10;99.90;;;;;;5006820;28;20038;-70
2022/12/15 06:17:21;;;;;;;17.35;6.82;;;-3.10;99.90;;;;;;5008201;28;20042;-70
2022/12/15 06:19:47;;;;;;;15.55;6.00;;;-3.10;99.90;;;;;;5005857;28;20026;-70
2022/12/15 06:22:13;;;;;;;15.85;5.90;;;-3.10;99.90;;;;;;5022520;28;20124;-70
2022/12/15 06:24:39;;;;;;;14.82;6.10;;;-3.00;99.90;;;;;;4990768;28;20038;-70
2022/12/15 06:27:04;;;;;;;18.05;6.88;;;-3.00;99.90;;;;;;5006266;28;20417;-67
2022/12/15 06:29:30;;;;;;;11.93;6.30;;;-3.10;99.90;;;;;;5005887;28;20100;-68
2022/12/15 06:31:55;;;;;;;14.05;5.68;;;-3.10;99.90;;;;;;5009673;28;20048;-70
2022/12/15 06:34:21;;;;;;;17.42;6.60;;;-3.10;99.90;;;;;;5007394;28;20092;-71
2022/12/15 06:36:47;;;;;;;14.35;6.18;;;-3.00;99.90;;;;;;5008266;28;20110;-71
2022/12/15 06:39:14;;;;;;;14.15;6.13;;;-3.00;99.90;;;;;;5007461;28;20045;-70
2022/12/15 06:41:40;;;;;;;14.88;7.18;;;-3.10;99.90;;;;;;5004538;28;20092;-70
2022/12/15 06:44:06;;;;;;;15.93;6.40;;;-2.90;99.90;;;;;;5005965;28;20033;-71
2022/12/15 06:46:35;;;;;;;16.60;6.10;;;-2.90;99.90;;;;;;5005187;28;20451;-70
2022/12/15 06:49:01;;;;;;;20.70;7.72;;;-2.90;99.90;;;;;;5006210;28;20096;-71
2022/12/15 06:51:27;;;;;;;15.32;6.93;;;-2.90;99.90;;;;;;5005840;28;20529;-71
2022/12/15 06:53:54;;;;;;;15.05;6.97;;;-2.90;99.90;;;;;;5004284;28;20038;-70
2022/12/15 06:56:31;;;;;;;17.15;7.47;;;-2.90;99.90;;;;;;5006484;28;20149;-69
2022/12/15 06:59:00;;;;;;;14.75;6.20;;;-2.90;99.90;;;;;;4987549;28;20022;-69
2022/12/15 07:01:26;;;;;;;14.95;5.68;;;-2.90;99.90;;;;;;5006375;28;20125;-70
2022/12/15 07:03:52;;;;;;;18.75;6.20;;;-2.90;99.90;;;;;;5009811;28;20061;-69
2022/12/15 07:06:19;;;;;;;14.75;6.32;;;-2.90;99.90;;;;;;5005173;28;20410;-71
2022/12/15 07:08:51;;;;;;;19.80;7.15;;;-2.90;99.90;;;;;;5003741;28;20072;-70
2022/12/15 07:11:17;;;;;;;14.65;6.78;;;-2.90;99.90;;;;;;5004761;28;20410;-70
2022/12/15 07:13:42;;;;;;;18.92;6.75;;;-2.90;99.90;;;;;;4988642;28;20132;-70
2022/12/15 07:16:10;;;;;;;11.93;5.63;;;-2.90;99.90;;;;;;5009764;28;20113;-71
2022/12/15 07:18:35;;;;;;;15.80;7.07;;;-2.90;99.90;;;;;;4991284;28;20037;-69
2022/12/15 07:21:05;;;;;;;17.90;7.00;;;-2.90;99.90;;;;;;5006150;28;20049;-70
2022/12/15 07:23:32;;;;;;;12.23;5.93;;;-2.90;99.90;;;;;;5002788;28;20030;-70
2022/12/15 07:26:00;;;;;;;13.30;6.45;;;-2.90;99.90;;;;;;5003484;28;20046;-71
2022/12/15 07:28:26;;;;;;;12.80;5.88;;;-2.90;99.90;;;;;;5004935;28;20034;-70
2022/12/15 07:30:52;;;;;;;14.05;6.38;;;-2.80;99.90;;;;;;4995507;28;20045;-69
2022/12/15 07:33:17;;;;;;;18.50;6.97;;;-2.80;99.90;;;;;;5004231;28;20087;-72
2022/12/15 07:35:52;;;;;;;18.33;6.97;;;-2.80;99.90;;;;;;4987902;28;20030;-70
2022/12/15 07:38:18;;;;;;;14.63;6.32;;;-2.80;99.90;;;;;;5007967;28;20049;-72
2022/12/15 07:40:44;;;;;;;15.98;6.72;;;-2.80;99.90;;;;;;5007537;28;20038;-71
2022/12/15 07:43:10;;;;;;;15.38;6.68;;;-2.80;99.90;;;;;;5002818;28;20103;-70
2022/12/15 07:45:35;;;;;;;17.92;6.97;;;-2.80;99.90;;;;;;5003170;28;20033;-68
2022/12/15 07:48:01;;;;;;;17.38;7.32;;;-2.70;99.90;;;;;;5003901;28;20054;-70
2022/12/15 07:50:27;;;;;;;17.25;7.38;;;-2.80;99.90;;;;;;5002998;28;20392;-70
2022/12/15 07:52:53;;;;;;;18.35;7.18;;;-2.70;99.90;;;;;;5006003;28;20026;-71
2022/12/15 07:55:19;;;;;;;19.02;6.35;;;-2.70;99.90;;;;;;5004926;28;20060;-71
2022/12/15 07:57:46;;;;;;;14.75;6.57;;;-2.70;99.90;;;;;;5005733;28;20038;-69
2022/12/15 08:00:13;;;;;;;15.80;7.32;;;-2.70;99.90;;;;;;5003486;28;20035;-71
2022/12/15 08:02:40;;;;;;;14.15;6.03;;;-2.70;99.90;;;;;;5006989;28;20042;-70
2022/12/15 08:05:07;;;;;;;15.48;5.95;;;-2.70;99.90;;;;;;4998906;28;20069;-69
2022/12/15 08:07:33;;;;;;;14.38;7.07;;;-2.70;99.90;;;;;;5003951;28;20113;-70
2022/12/15 08:09:59;;;;;;;16.70;7.45;;;-2.60;99.90;;;;;;5008695;28;20173;-69
2022/12/15 08:12:26;;;;;;;15.65;6.78;;;-2.70;99.90;;;;;;4994631;28;20038;-70
2022/12/15 08:14:52;;;;;;;17.42;7.63;;;-2.60;99.90;;;;;;5005142;28;20046;-69
2022/12/15 08:17:17;;;;;;;14.43;7.15;;;-2.60;99.90;;;;;;5007748;28;20034;-71
2022/12/15 08:19:43;;;;;;;22.73;8.07;;;-2.60;99.90;;;;;;5007421;28;20034;-68
2022/12/15 08:22:08;;;;;;;20.05;8.43;;;-2.60;99.90;;;;;;5009080;28;20367;-70
2022/12/15 08:24:34;;;;;;;16.20;7.43;;;-2.60;99.90;;;;;;5009563;28;20117;-71
2022/12/15 08:27:00;;;;;;;21.42;7.75;;;-2.60;99.90;;;;;;4987945;28;20077;-70
2022/12/15 08:29:26;;;;;;;19.15;7.20;;;-2.60;99.90;;;;;;5004883;28;20046;-70
2022/12/15 08:31:52;;;;;;;19.50;8.02;;;-2.50;99.90;;;;;;5007347;28;20062;-70
2022/12/15 08:34:17;;;;;;;19.60;7.65;;;-2.50;99.90;;;;;;5009943;28;20031;-70
2022/12/15 08:36:43;;;;;;;18.45;7.78;;;-2.50;99.90;;;;;;5015310;28;20137;-70
2022/12/15 08:39:08;;;;;;;21.75;8.10;;;-2.50;99.90;;;;;;5009548;28;20026;-67
2022/12/15 08:41:34;;;;;;;16.20;7.63;;;-2.50;99.90;;;;;;5010745;28;20133;-70
2022/12/15 08:44:01;;;;;;;16.45;7.28;;;-2.40;99.90;;;;;;5008385;28;20088;-70
2022/12/15 08:46:29;;;;;;;20.77;7.65;;;-2.40;99.90;;;;;;5013587;28;20040;-71
2022/12/15 08:48:55;;;;;;;22.45;8.82;;;-2.40;99.90;;;;;;5016395;28;20053;-71
2022/12/15 08:51:24;;;;;;;24.58;9.35;;;-2.40;99.90;;;;;;5013530;28;20502;-71
2022/12/15 08:53:53;;;;;;;16.52;8.25;;;-2.30;99.90;;;;;;5008293;28;20528;-71
2022/12/15 08:56:21;;;;;;;17.17;7.53;;;-2.30;99.90;;;;;;5012324;28;20038;-70
2022/12/15 08:58:48;;;;;;;21.45;8.45;;;-2.20;99.90;;;;;;5015293;28;20030;-71
2022/12/15 09:01:16;;;;;;;17.75;7.93;;;-2.20;99.90;;;;;;5008367;28;20040;-72
2022/12/15 09:03:42;;;;;;;18.25;8.70;;;-2.10;99.90;;;;;;5011589;28;20091;-70
2022/12/15 09:06:15;;;;;;;19.40;7.28;;;-2.10;99.90;;;;;;5009439;28;20030;-70
2022/12/15 09:08:41;;;;;;;20.85;7.65;;;-2.00;99.90;;;;;;4993878;28;20041;-69
2022/12/15 09:11:07;;;;;;;23.75;8.52;;;-1.90;99.90;;;;;;5009008;28;20026;-70
2022/12/15 09:13:33;;;;;;;17.30;8.30;;;-1.80;99.90;;;;;;5010228;28;20033;-70
2022/12/15 09:16:02;;;;;;;21.48;8.23;;;-1.70;99.90;;;;;;5011124;28;20419;-71
2022/12/15 09:18:28;;;;;;;20.00;8.48;;;-1.60;99.90;;;;;;5008230;28;20120;-71
2022/12/15 09:20:54;;;;;;;18.75;8.27;;;-1.50;99.90;;;;;;5012136;28;20080;-70
2022/12/15 09:23:20;;;;;;;16.30;8.48;;;-1.50;99.90;;;;;;5017592;28;20053;-70
2022/12/15 09:25:46;;;;;;;19.27;7.75;;;-1.40;99.90;;;;;;4993163;28;20045;-71
2022/12/15 09:28:13;;;;;;;19.10;8.73;;;-1.30;99.90;;;;;;5007897;28;20033;-71
2022/12/15 09:30:38;;;;;;;19.10;8.57;;;-1.20;99.90;;;;;;5009249;28;20587;-68
2022/12/15 09:33:04;;;;;;;20.70;8.35;;;-1.20;99.90;;;;;;5008619;28;20044;-71
2022/12/15 09:35:30;;;;;;;21.50;8.75;;;-1.10;99.90;;;;;;5006949;28;20041;-70
2022/12/15 09:37:56;;;;;;;21.48;8.25;;;-1.00;99.90;;;;;;5007875;28;20495;-70
2022/12/15 09:40:23;;;;;;;17.52;7.88;;;-0.90;99.90;;;;;;5008545;28;20057;-71
2022/12/15 09:42:54;;;;;;;17.48;8.27;;;-0.80;99.90;;;;;;5006836;28;20054;-72
2022/12/15 09:45:34;;;;;;;23.98;9.43;;;-0.80;99.90;;;;;;5010570;28;20204;-71
2022/12/15 09:48:09;;;;;;;24.52;9.20;;;-0.70;99.90;;;;;;5008637;28;20133;-69
2022/12/15 09:50:37;;;;;;;21.48;8.15;;;-0.60;99.90;;;;;;5002683;28;20050;-69
2022/12/15 09:53:09;;;;;;;18.90;7.75;;;-0.60;99.90;;;;;;5007133;28;20038;-69
2022/12/15 09:55:35;;;;;;;22.65;9.77;;;-0.50;99.90;;;;;;5007463;28;20030;-67
2022/12/15 09:58:28;;;;;;;20.25;9.05;;;-0.50;99.90;;;;;;4996299;28;20122;-70
2022/12/15 10:01:06;;;;;;;24.63;9.15;;;-0.40;99.90;;;;;;4997861;28;20045;-70
2022/12/15 10:03:55;;;;;;;22.30;9.48;;;-0.30;99.90;;;;;;4997417;28;20037;-68
2022/12/15 10:06:32;;;;;;;21.65;9.00;;;-0.10;99.90;;;;;;4985609;28;20049;-70
2022/12/15 10:09:08;;;;;;;18.67;8.93;;;0.00;99.90;;;;;;5001292;28;20129;-69
2022/12/15 10:11:58;;;;;;;19.83;8.38;;;0.10;99.90;;;;;;5001073;28;20057;-69
2022/12/15 10:14:36;;;;;;;22.30;8.73;;;0.20;99.90;;;;;;4964684;28;20037;-70
2022/12/15 10:17:26;;;;;;;21.98;8.70;;;0.30;99.90;;;;;;4991935;28;20044;-70
2022/12/15 10:20:23;;;;;;;19.60;9.30;;;0.30;99.90;;;;;;5016884;28;20404;-71
2022/12/15 10:22:50;;;;;;;20.60;8.27;;;0.40;99.90;;;;;;5008229;28;20058;-72
2022/12/15 10:25:24;;;;;;;20.67;8.40;;;0.40;99.90;;;;;;5009866;28;20493;-71
2022/12/15 10:27:50;;;;;;;21.20;8.85;;;0.50;99.90;;;;;;5008325;28;20489;-70
2022/12/15 10:30:16;;;;;;;17.88;9.70;;;0.40;99.90;;;;;;5006303;28;20038;-70
2022/12/15 10:33:09;;;;;;;23.00;8.65;;;0.50;99.90;;;;;;5007797;28;20140;-68
2022/12/15 10:35:36;;;;;;;21.25;8.82;;;0.50;99.90;;;;;;5006713;28;20050;-70
2022/12/15 10:38:05;;;;;;;23.85;9.25;;;0.50;99.90;;;;;;5008878;28;20037;-71
2022/12/15 10:40:49;;;;;;;23.80;9.45;;;0.60;99.90;;;;;;5007086;28;20038;-70
2022/12/15 10:43:26;;;;;;;27.63;9.55;;;0.70;99.90;;;;;;5009223;28;20096;-70
2022/12/15 10:46:04;;;;;;;21.17;9.27;;;0.70;99.90;;;;;;5009307;28;20037;-70
2022/12/15 10:48:30;;;;;;;19.80;8.05;;;0.70;99.90;;;;;;5004698;28;20038;-71
2022/12/15 10:51:23;;;;;;;23.77;9.23;;;0.80;99.90;;;;;;5006759;28;20507;-70
2022/12/15 10:54:03;;;;;;;23.33;9.38;;;0.90;99.90;;;;;;5007851;28;20030;-72
2022/12/15 10:56:32;;;;;;;21.60;9.20;;;0.90;99.90;;;;;;5004537;28;20057;-71
2022/12/15 10:59:00;;;;;;;21.05;9.10;;;0.90;99.90;;;;;;5006567;28;20096;-69
2022/12/15 11:01:28;;;;;;;16.40;8.07;;;0.90;99.90;;;;;;5010139;28;20036;-70
2022/12/15 11:03:55;;;;;;;24.33;8.15;;;0.90;99.90;;;;;;4989725;28;20030;-70
2022/12/15 11:06:30;;;;;;;20.30;8.70;;;0.90;99.90;;;;;;5008602;28;20117;-70
2022/12/15 11:09:06;;;;;;;20.80;8.45;;;0.90;99.90;;;;;;5004364;28;20116;-69
2022/12/15 11:14:26;;;;;;;20.25;8.45;;;0.90;99.90;;;;;;5010205;28;20084;-70
2022/12/15 11:16:57;;;;;;;21.38;9.38;;;1.00;99.90;;;;;;5005598;28;20026;-70
2022/12/15 11:19:22;;;;;;;;;;;0.90;99.90;;;;;;5004573;28;20053;-70
2022/12/15 11:21:54;;;;;;;22.02;8.25;;;0.90;99.90;;;;;;5008777;28;19925;-71
2022/12/15 11:24:43;;;;;;;17.45;8.52;;;0.80;99.90;;;;;;5014621;28;20046;-71
2022/12/15 11:27:27;;;;;;;21.35;9.18;;;0.80;99.90;;;;;;5011014;28;20037;-71
2022/12/15 11:30:02;;;;;;;21.63;9.07;;;0.80;99.90;;;;;;5001235;28;20037;-70
2022/12/15 11:32:32;;;;;;;21.15;9.10;;;0.80;99.90;;;;;;5007824;28;20494;-70
2022/12/15 11:34:58;;;;;;;22.90;9.57;;;0.90;99.90;;;;;;5007686;28;20037;-69
2022/12/15 11:37:56;;;;;;;22.45;9.55;;;1.00;99.90;;;;;;5015510;28;20038;-70
2022/12/15 11:40:42;;;;;;;21.08;9.05;;;1.10;99.90;;;;;;5011312;28;20306;-70
2022/12/15 11:43:35;;;;;;;30.10;9.60;;;1.20;99.90;;;;;;5005032;28;20030;-70
2022/12/15 11:46:21;;;;;;;21.98;10.05;;;1.30;99.90;;;;;;5003827;28;20045;-71
2022/12/15 11:49:09;;;;;;;22.48;8.80;;;1.30;99.90;;;;;;5005582;28;20034;-70
2022/12/15 11:51:49;;;;;;;21.73;8.93;;;1.30;99.90;;;;;;5004403;28;20803;-71
2022/12/15 11:54:41;;;;;;;20.67;9.80;;;1.20;99.90;;;;;;5004909;28;20034;-71
2022/12/15 11:57:22;;;;;;;19.75;9.13;;;1.20;99.90;;;;;;5005324;28;20410;-71
2022/12/15 12:00:14;;;;;;;21.05;8.55;;;1.20;99.90;;;;;;5004744;28;20026;-70
2022/12/15 12:02:49;;;;;;;21.23;9.35;;;1.20;99.90;;;;;;4989110;28;20045;-71
2022/12/15 12:05:33;;;;;;;23.48;10.45;;;1.20;99.90;;;;;;5004664;28;20050;-70
2022/12/15 12:08:14;;;;;;;19.83;9.65;;;1.30;99.90;;;;;;5012469;28;20038;-69
2022/12/15 12:10:56;;;;;;;23.80;9.85;;;1.40;99.90;;;;;;5008468;28;20037;-70
2022/12/15 12:13:34;;;;;;;19.95;9.95;;;1.40;99.90;;;;;;5006864;28;20136;-71
2022/12/15 12:16:14;;;;;;;21.80;10.52;;;1.40;99.90;;;;;;5014361;28;20060;-70
2022/12/15 12:18:55;;;;;;;;;;;1.40;99.90;;;;;;5014498;28;20033;-69
2022/12/15 12:21:24;;;;;;;;;;;1.50;99.90;;;;;;5007968;28;20436;-71
2022/12/15 12:23:59;;;;;;;19.10;8.77;;;1.40;99.90;;;;;;5005830;28;19926;-70
2022/12/15 12:26:31;;;;;;;19.42;9.55;;;1.50;99.90;;;;;;5007079;28;20046;-70
2022/12/15 12:29:01;;;;;;;22.00;10.57;;;1.50;99.90;;;;;;5007407;28;20058;-70
2022/12/15 12:31:56;;;;;;;23.08;9.90;;;1.50;99.90;;;;;;5010435;28;20065;-68
2022/12/15 12:34:47;;;;;;;19.92;10.13;;;1.60;99.90;;;;;;5005965;28;20112;-71
2022/12/15 12:37:24;;;;;;;22.55;8.93;;;1.60;99.90;;;;;;5010228;28;20095;-71
2022/12/15 12:39:52;;;;;;;23.95;9.82;;;1.60;99.90;;;;;;5005678;28;20068;-71
2022/12/15 12:42:26;;;;;;;22.83;9.38;;;1.60;99.90;;;;;;5010556;28;20495;-70
2022/12/15 12:44:52;;;;;;;20.98;8.85;;;1.60;99.90;;;;;;5005472;28;20046;-70
2022/12/15 12:47:25;;;;;;;20.90;10.13;;;1.70;99.90;;;;;;5010263;28;20584;-70
2022/12/15 12:49:55;;;;;;;23.90;9.10;;;1.70;99.90;;;;;;5007181;28;20120;-70
2022/12/15 12:52:31;;;;;;;22.48;9.80;;;1.80;99.90;;;;;;5007060;28;20473;-71
2022/12/15 12:55:29;;;;;;;22.02;9.93;;;1.80;99.90;;;;;;5009287;28;20033;-70
2022/12/15 12:57:55;;;;;;;20.90;9.80;;;1.80;99.90;;;;;;4989482;28;20534;-70
2022/12/15 13:00:29;;;;;;;22.17;10.13;;;1.80;99.90;;;;;;5013560;28;20083;-70
2022/12/15 13:03:10;;;;;;;21.70;10.13;;;1.80;99.90;;;;;;5007767;28;20084;-70
2022/12/15 13:05:38;;;;;;;25.73;9.93;;;1.80;99.90;;;;;;5010528;28;20034;-69
2022/12/15 13:08:03;;;;;;;18.95;8.35;;;1.80;99.90;;;;;;5005932;28;20103;-69
2022/12/15 13:10:30;;;;;;;20.35;9.55;;;1.80;99.90;;;;;;5010257;28;20042;-69
2022/12/15 13:12:58;;;;;;;19.98;9.10;;;1.80;99.90;;;;;;5009907;28;20041;-70
2022/12/15 13:15:26;;;;;;;20.27;9.32;;;1.70;99.90;;;;;;5008489;28;20041;-70
2022/12/15 13:18:20;;;;;;;24.58;9.63;;;1.70;99.90;;;;;;5006390;28;20034;-70
2022/12/15 13:20:47;;;;;;;19.20;8.98;;;1.70;99.90;;;;;;5007310;28;20041;-70
2022/12/15 13:23:19;;;;;;;23.85;9.60;;;1.70;99.90;;;;;;5006406;28;20125;-70
2022/12/15 13:26:04;;;;;;;18.38;9.25;;;1.70;99.90;;;;;;5010167;28;20045;-70
2022/12/15 13:28:30;;;;;;;20.50;9.70;;;1.80;99.90;;;;;;4986025;28;20061;-70
2022/12/15 13:31:17;;;;;;;17.58;8.43;;;1.80;99.90;;;;;;4989350;28;20506;-70
2022/12/15 13:33:51;;;;;;;26.33;9.63;;;1.80;99.90;;;;;;5010025;28;20132;-70
2022/12/15 13:36:36;;;;;;;19.40;8.45;;;1.80;99.90;;;;;;5006058;28;20525;-68
2022/12/15 13:39:21;;;;;;;18.98;9.23;;;1.90;99.90;;;;;;5007648;28;20088;-69
2022/12/15 13:41:53;;;;;;;20.23;8.38;;;1.90;99.90;;;;;;5007958;28;20056;-69
2022/12/15 13:44:31;;;;;;;16.85;7.45;;;1.90;99.90;;;;;;5005218;28;20117;-71
2022/12/15 13:47:11;;;;;;;20.45;8.75;;;1.90;99.90;;;;;;5009151;28;20038;-70
2022/12/15 13:50:08;;;;;;;25.42;10.30;;;1.90;99.90;;;;;;5010803;28;20151;-70
2022/12/15 13:52:39;;;;;;;18.38;8.20;;;1.90;99.90;;;;;;5009218;28;20041;-71
2022/12/15 13:55:15;;;;;;;23.52;8.65;;;1.90;99.90;;;;;;4988947;28;20499;-70
2022/12/15 13:57:54;;;;;;;23.98;8.98;;;1.90;99.90;;;;;;5006606;28;20042;-70
2022/12/15 14:00:19;;;;;;;26.08;9.05;;;1.90;99.90;;;;;;5001982;28;20057;-70
2022/12/15 14:02:45;;;;;;;21.25;7.90;;;1.80;99.90;;;;;;5006003;28;20072;-69
2022/12/15 14:05:13;;;;;;;17.45;8.68;;;1.80;99.90;;;;;;5008226;28;20045;-71
2022/12/15 14:08:00;;;;;;;19.30;8.63;;;1.80;99.90;;;;;;5003559;28;20050;-70
2022/12/15 14:10:27;;;;;;;19.02;8.27;;;1.80;99.90;;;;;;4985540;28;20077;-71
2022/12/15 14:12:56;;;;;;;19.60;9.27;;;1.90;99.90;;;;;;5006023;28;20034;-70
2022/12/15 14:15:27;;;;;;;26.13;8.98;;;1.80;99.90;;;;;;5005144;28;20034;-71
2022/12/15 14:17:54;;;;;;;16.52;8.52;;;1.80;99.90;;;;;;5003505;28;20022;-71
2022/12/15 14:20:39;;;;;;;17.42;8.25;;;1.80;99.90;;;;;;5006703;28;20034;-72
2022/12/15 14:23:22;;;;;;;18.27;7.72;;;1.80;99.90;;;;;;5010819;28;20033;-72
2022/12/15 14:25:53;;;;;;;16.77;8.25;;;1.80;99.90;;;;;;5006430;28;20120;-69
2022/12/15 14:28:29;;;;;;;18.63;7.50;;;1.70;99.90;;;;;;5007527;28;20049;-72
2022/12/15 14:30:58;;;;;;;21.63;8.88;;;1.70;99.90;;;;;;5005075;28;20093;-70
2022/12/15 14:33:24;;;;;;;14.53;7.97;;;1.70;99.90;;;;;;5003671;28;20038;-70
2022/12/15 14:35:54;;;;;;;17.75;7.68;;;1.60;99.90;;;;;;5004255;28;20125;-70
2022/12/15 14:38:27;;;;;;;17.27;8.00;;;1.60;99.90;;;;;;5002719;28;20038;-70
2022/12/15 14:40:56;;;;;;;15.20;7.60;;;1.60;99.90;;;;;;5007084;28;20061;-70
2022/12/15 14:43:30;;;;;;;18.60;7.68;;;1.60;99.90;;;;;;5003889;28;20053;-71
2022/12/15 14:46:05;;;;;;;17.05;7.55;;;1.60;99.90;;;;;;5002668;28;20450;-71
2022/12/15 14:48:35;;;;;;;20.25;8.15;;;1.50;99.90;;;;;;5003783;28;20134;-71
2022/12/15 14:51:02;;;;;;;18.95;7.78;;;1.50;99.90;;;;;;5005265;28;20129;-71
2022/12/15 14:53:35;;;;;;;21.80;9.60;;;1.40;99.90;;;;;;5004086;28;20080;-69
2022/12/15 14:56:19;;;;;;;23.83;9.93;;;1.40;99.90;;;;;;5004599;28;20153;-69
2022/12/15 14:58:46;;;;;;;19.70;8.25;;;1.40;99.90;;;;;;5002716;28;20038;-70
2022/12/15 15:01:21;;;;;;;19.20;8.65;;;1.40;99.90;;;;;;5008364;28;20097;-70
2022/12/15 15:04:00;;;;;;;20.67;9.05;;;1.40;99.90;;;;;;5002842;28;20048;-69
2022/12/15 15:06:35;;;;;;;19.92;9.45;;;1.30;99.90;;;;;;5006674;28;20037;-70
2022/12/15 15:09:19;;;;;;;23.40;11.07;;;1.30;99.90;;;;;;5005589;28;20034;-71
2022/12/15 15:11:48;;;;;;;19.92;9.20;;;1.30;99.90;;;;;;5008955;28;20095;-70
2022/12/15 15:14:22;;;;;;;21.63;9.00;;;1.30;99.90;;;;;;5003820;28;20041;-70
2022/12/15 15:17:11;;;;;;;22.63;10.85;;;1.20;99.90;;;;;;5008338;28;20521;-70
2022/12/15 15:19:48;;;;;;;19.08;10.25;;;1.10;99.90;;;;;;5004415;28;20034;-69
2022/12/15 15:22:44;;;;;;;19.52;9.20;;;1.10;99.90;;;;;;5003667;28;20557;-70
2022/12/15 15:25:27;;;;;;;21.95;9.13;;;1.10;99.90;;;;;;5001037;28;20042;-71
2022/12/15 15:28:16;;;;;;;20.63;10.32;;;1.00;99.90;;;;;;5003621;28;20505;-71
2022/12/15 15:30:47;;;;;;;19.48;8.90;;;1.00;99.90;;;;;;5000930;28;20064;-70